Time;durP1;ratioP1;P1;durP2;ratioP2;P2;SDS_P1;SDS_P2;PMS_P1;PMS_P2;Temp;Humidity;BMP_temperature;BMP_pressure;BME280_temperature;BME280_humidity;BME280_pressure;Samples;Min_cycle;Max_cycle;Signal;HPM_P1;HPM_P2
2024/03/22 08:48:26;;;;;;;20.65;6.95;;;;;;;13.67;100.00;101840.28;5097380;27;20360;-37
2024/03/22 08:50:52;;;;;;;477.30;21.73;;;;;;;14.27;91.52;101832.47;5100684;28;20036;-43
2024/03/22 08:53:17;;;;;;;28.33;8.98;;;;;;;13.86;93.54;101830.97;5110475;27;20145;-46
2024/03/22 08:55:47;;;;;;;29.67;9.25;;;;;;;13.81;93.96;101831.78;5110657;27;20656;-39
2024/03/22 09:00:31;;;;;;;29.05;9.40;;;;;;;13.18;98.39;101828.06;5073744;27;20383;-39
2024/03/22 09:02:56;;;;;;;27.08;9.52;;;;;;;13.47;96.19;101821.63;5069747;28;20041;-42
2024/03/22 09:05:22;;;;;;;29.63;9.95;;;;;;;13.04;98.30;101826.94;5067292;28;20122;-42
2024/03/22 09:07:48;;;;;;;30.45;10.18;;;;;;;13.03;100.00;101828.66;5067250;28;20086;-41
2024/03/22 09:10:13;;;;;;;34.05;10.68;;;;;;;13.17;99.27;101826.34;5067141;28;20063;-41
2024/03/22 09:12:39;;;;;;;31.48;10.27;;;;;;;13.38;97.42;101829.31;5066831;28;20067;-40
2024/03/22 09:15:04;;;;;;;34.05;10.85;;;;;;;13.25;96.36;101825.59;5069222;28;20033;-41
2024/03/22 09:17:30;;;;;;;29.48;10.07;;;;;;;13.31;97.32;101837.91;5069667;28;20044;-41
2024/03/22 09:19:55;;;;;;;29.70;10.43;;;;;;;13.24;96.63;101831.69;5070977;28;20039;-41
2024/03/22 09:22:21;;;;;;;32.05;10.35;;;;;;;13.37;96.09;101832.78;5068784;28;20066;-39
2024/03/22 09:24:46;;;;;;;33.95;10.55;;;;;;;13.43;95.77;101829.38;5068054;28;20501;-41
2024/03/22 09:27:11;;;;;;;33.83;11.43;;;;;;;13.13;97.89;101840.22;5067128;28;20037;-40
2024/03/22 09:29:37;;;;;;;33.63;11.55;;;;;;;12.84;97.86;101834.41;5066440;28;20120;-40
2024/03/22 09:32:03;;;;;;;28.70;10.52;;;;;;;13.14;97.80;101829.78;5067774;28;20041;-41
2024/03/22 09:34:29;;;;;;;34.75;10.68;;;;;;;13.14;97.91;101828.88;5066177;28;20025;-40
2024/03/22 09:36:55;;;;;;;32.53;11.05;;;;;;;12.98;98.32;101831.22;5067869;28;20112;-42
2024/03/22 09:39:21;;;;;;;33.80;11.15;;;;;;;12.94;97.55;101818.91;5066450;28;20421;-42
2024/03/22 09:41:47;;;;;;;32.60;11.38;;;;;;;13.00;98.33;101828.59;5066816;28;20025;-41
2024/03/22 09:44:16;;;;;;;29.38;11.50;;;;;;;12.71;97.91;101822.81;5067084;28;20025;-40
2024/03/22 09:46:42;;;;;;;38.35;12.23;;;;;;;12.86;97.83;101815.28;5066776;28;20032;-40
2024/03/22 09:49:10;;;;;;;33.22;11.60;;;;;;;13.41;96.41;101813.66;5068165;28;20035;-42
2024/03/22 09:51:37;;;;;;;28.52;12.75;;;;;;;12.98;97.58;101815.50;5068248;28;20423;-41
2024/03/22 09:54:02;;;;;;;32.28;12.13;;;;;;;12.74;98.75;101815.03;5069607;28;20067;-42
2024/03/22 09:56:30;;;;;;;33.95;12.75;;;;;;;13.11;97.70;101811.38;5068394;28;20036;-41
2024/03/22 09:58:57;;;;;;;31.35;12.35;;;;;;;13.06;97.14;101810.38;5068323;28;20028;-41
2024/03/22 10:01:24;;;;;;;35.50;12.00;;;;;;;12.98;98.50;101812.00;5070209;28;20033;-41
2024/03/22 10:03:51;;;;;;;30.45;12.43;;;;;;;13.44;97.16;101815.44;5070938;28;20032;-42
2024/03/22 10:06:16;;;;;;;28.42;11.43;;;;;;;12.90;98.16;101817.09;5070839;28;20037;-39
2024/03/22 10:08:41;;;;;;;28.80;12.73;;;;;;;12.99;98.70;101809.38;5069207;28;20032;-41
2024/03/22 10:11:07;;;;;;;30.75;12.13;;;;;;;13.24;97.58;101813.34;5061900;28;20040;-42
2024/03/22 10:13:33;;;;;;;23.20;11.70;;;;;;;13.40;96.94;101811.91;5056761;28;20044;-40
2024/03/22 10:15:58;;;;;;;26.85;11.88;;;;;;;13.01;97.48;101812.91;5056913;28;20098;-40
2024/03/22 10:18:23;;;;;;;32.78;11.60;;;;;;;12.95;97.28;101809.31;5056518;28;22010;-42
2024/03/22 10:21:05;;;;;;;26.60;11.43;;;;;;;12.92;98.83;101812.78;5057258;28;20128;-39
2024/03/22 10:23:31;;;;;;;27.33;12.27;;;;;;;13.36;97.85;101810.06;5056865;28;20052;-41
2024/03/22 10:26:00;;;;;;;22.70;11.75;;;;;;;13.06;98.47;101810.38;5056497;28;20033;-40
2024/03/22 10:28:26;;;;;;;25.17;11.55;;;;;;;13.17;98.26;101816.75;5056595;28;20126;-40
2024/03/22 10:30:52;;;;;;;25.30;11.77;;;;;;;12.89;98.29;101815.31;5057938;28;20127;-40
2024/03/22 10:33:25;;;;;;;24.02;12.02;;;;;;;13.01;97.97;101818.16;5056356;28;20514;-41
2024/03/22 10:35:52;;;;;;;25.67;12.60;;;;;;;13.52;97.15;101816.47;5056579;28;20151;-40
2024/03/22 10:38:19;;;;;;;25.23;12.60;;;;;;;12.98;97.58;101818.13;5056099;28;20116;-40
2024/03/22 10:40:46;;;;;;;25.52;11.77;;;;;;;12.82;99.00;101825.63;5055536;28;20090;-41
2024/03/22 10:43:12;;;;;;;27.67;13.00;;;;;;;13.08;99.07;101813.91;5053741;28;20032;-42
2024/03/22 10:45:39;;;;;;;26.95;13.00;;;;;;;12.88;100.00;101815.28;5052887;28;20033;-40
2024/03/22 10:48:09;;;;;;;30.08;14.18;;;;;;;12.82;100.00;101821.28;5052559;28;20120;-42
2024/03/22 10:50:41;;;;;;;33.05;14.65;;;;;;;13.02;99.86;101817.31;5051094;28;20043;-45
2024/03/22 10:53:11;;;;;;;30.60;15.18;;;;;;;13.06;99.94;101818.22;5067504;28;20028;-43
2024/03/22 10:55:43;;;;;;;28.80;14.98;;;;;;;13.30;97.21;101813.47;5070584;28;20043;-41
2024/03/22 10:58:20;;;;;;;30.55;15.10;;;;;;;13.11;98.20;101823.56;5072332;28;20094;-43
2024/03/22 11:00:46;;;;;;;29.30;15.45;;;;;;;13.56;97.03;101813.03;5071701;28;20036;-40
2024/03/22 11:03:13;;;;;;;32.75;15.73;;;;;;;13.26;98.93;101813.41;5071908;28;20062;-41
2024/03/22 11:05:45;;;;;;;32.83;15.90;;;;;;;13.70;97.17;101811.50;5072139;28;20028;-41
2024/03/22 11:08:11;;;;;;;35.28;16.10;;;;;;;13.47;97.82;101812.88;5070652;28;20548;-41
2024/03/22 11:10:37;;;;;;;33.72;16.33;;;;;;;13.72;97.37;101808.03;5069867;28;20032;-45
2024/03/22 11:13:03;;;;;;;32.60;15.80;;;;;;;13.42;97.71;101806.69;5071458;28;20036;-41
2024/03/22 11:15:29;;;;;;;33.58;15.38;;;;;;;14.06;95.50;101804.19;5070667;28;20029;-42
2024/03/22 11:17:55;;;;;;;34.10;15.35;;;;;;;13.57;95.47;101805.19;5071159;28;20047;-41
2024/03/22 11:20:20;;;;;;;33.63;14.38;;;;;;;13.66;94.80;101796.59;5071051;28;20418;-43
2024/03/22 11:22:46;;;;;;;27.27;13.82;;;;;;;13.56;95.39;101802.53;5070448;28;20428;-41
2024/03/22 11:25:11;;;;;;;32.80;14.23;;;;;;;13.90;94.03;101798.72;5070834;28;20035;-45
2024/03/22 11:27:37;;;;;;;28.60;14.25;;;;;;;14.33;92.43;101790.56;5071048;28;20042;-43
2024/03/22 11:30:03;;;;;;;32.15;13.82;;;;;;;14.18;91.35;101785.09;5071459;28;20024;-43
2024/03/22 11:32:29;;;;;;;31.85;13.32;;;;;;;13.98;92.36;101774.34;5071164;28;20506;-42
2024/03/22 11:34:54;;;;;;;31.95;13.23;;;;;;;14.53;91.03;101788.19;5072007;28;20078;-43
2024/03/22 11:37:19;;;;;;;31.50;14.35;;;;;;;14.62;89.87;101780.44;5072342;28;20040;-42
2024/03/22 11:39:45;;;;;;;29.05;13.32;;;;;;;14.68;89.14;101774.38;5073192;28;20040;-42
2024/03/22 11:42:11;;;;;;;29.77;12.15;;;;;;;14.48;90.33;101776.78;5071918;28;20036;-42
2024/03/22 11:44:38;;;;;;;27.20;12.65;;;;;;;14.08;90.32;101775.38;5072237;28;20056;-44
2024/03/22 11:47:04;;;;;;;30.20;12.35;;;;;;;14.10;90.61;101782.38;5072790;28;20044;-42
2024/03/22 11:49:30;;;;;;;28.45;12.85;;;;;;;14.28;90.06;101789.59;5073311;28;20039;-41
2024/03/22 11:51:58;;;;;;;27.40;12.63;;;;;;;14.39;89.22;101781.94;5073733;28;20033;-43
2024/03/22 11:54:23;;;;;;;28.80;12.68;;;;;;;14.64;88.39;101781.31;5071932;28;20405;-42
2024/03/22 11:56:49;;;;;;;25.60;11.63;;;;;;;15.13;85.61;101784.44;5073703;28;20029;-41
2024/03/22 11:59:15;;;;;;;22.42;11.77;;;;;;;14.79;86.14;101781.50;5073765;28;20530;-43
2024/03/22 12:01:41;;;;;;;27.15;11.63;;;;;;;15.12;85.45;101773.09;5071624;28;20032;-42
2024/03/22 12:04:07;;;;;;;29.77;11.65;;;;;;;14.68;85.49;101774.38;5072986;28;20071;-43
2024/03/22 12:06:34;;;;;;;27.70;12.25;;;;;;;14.78;86.11;101774.47;5072713;28;20044;-43
2024/03/22 12:09:00;;;;;;;26.25;12.40;;;;;;;14.34;87.54;101780.94;5073203;28;20111;-42
2024/03/22 12:11:25;;;;;;;24.80;12.25;;;;;;;14.63;87.05;101776.06;5071748;28;20059;-44
2024/03/22 12:13:51;;;;;;;23.45;12.25;;;;;;;14.70;87.25;101773.50;5070766;28;20024;-46
2024/03/22 12:16:18;;;;;;;24.65;11.30;;;;;;;14.35;87.71;101770.47;5072172;28;20059;-42
2024/03/22 12:18:43;;;;;;;21.35;10.55;;;;;;;14.48;88.09;101766.28;5070708;28;20089;-43
2024/03/22 12:21:09;;;;;;;21.13;9.48;;;;;;;14.20;87.45;101757.16;5071107;28;20119;-43
2024/03/22 12:23:34;;;;;;;22.67;9.02;;;;;;;14.47;87.06;101756.63;5069708;28;20111;-44
2024/03/22 12:25:59;;;;;;;19.52;8.45;;;;;;;14.45;85.58;101746.16;5071013;28;20102;-41
2024/03/22 12:28:24;;;;;;;18.58;8.80;;;;;;;14.18;86.81;101746.66;5071037;28;20028;-43
2024/03/22 12:30:50;;;;;;;19.08;8.82;;;;;;;13.77;88.48;101740.00;5089598;22;20039;-42
2024/03/22 12:33:15;;;;;;;18.92;9.55;;;;;;;14.31;88.19;101733.69;5069266;28;20033;-44
2024/03/22 12:35:41;;;;;;;21.83;10.05;;;;;;;14.14;89.36;101741.34;5072325;28;20086;-45
2024/03/22 12:38:10;;;;;;;25.35;10.70;;;;;;;14.08;89.24;101741.28;5070908;28;20028;-45
2024/03/22 12:40:36;;;;;;;25.48;11.35;;;;;;;14.27;89.18;101738.03;5071320;28;20115;-45
2024/03/22 12:43:01;;;;;;;24.45;11.70;;;;;;;14.03;90.54;101740.31;5051727;28;20033;-45
2024/03/22 12:45:26;;;;;;;23.65;11.93;;;;;;;14.40;88.88;101734.69;5051428;28;20083;-46
2024/03/22 12:47:52;;;;;;;28.27;12.88;;;;;;;14.27;89.58;101730.16;5052054;28;20064;-43
2024/03/22 12:50:17;;;;;;;31.23;13.18;;;;;;;14.30;88.76;101724.94;5051572;28;20055;-48
2024/03/22 12:52:44;;;;;;;26.15;12.75;;;;;;;14.28;88.61;101731.91;5049661;28;20094;-44
2024/03/22 12:55:09;;;;;;;28.02;13.50;;;;;;;14.38;88.56;101723.31;5051543;28;20033;-46
2024/03/22 12:57:35;;;;;;;31.55;13.32;;;;;;;14.58;87.57;101726.13;5051819;28;20035;-46
2024/03/22 13:00:01;;;;;;;27.27;13.40;;;;;;;14.93;85.83;101726.50;5051519;28;20038;-45
2024/03/22 13:02:26;;;;;;;24.58;12.43;;;;;;;14.88;86.94;101730.84;5051782;28;20040;-45
2024/03/22 13:04:53;;;;;;;27.63;13.10;;;;;;;14.81;85.31;101723.78;5052141;28;20028;-44
2024/03/22 13:07:19;;;;;;;24.48;12.35;;;;;;;14.64;84.56;101718.34;5051539;28;20029;-45
2024/03/22 13:09:44;;;;;;;26.92;12.23;;;;;;;14.90;84.04;101714.22;5051817;28;20044;-46
2024/03/22 13:12:10;;;;;;;27.08;11.80;;;;;;;14.41;86.83;101714.59;5051655;28;20040;-46
2024/03/22 13:14:35;;;;;;;27.50;12.18;;;;;;;14.82;84.85;101709.78;5048954;28;20052;-44
2024/03/22 13:17:00;;;;;;;25.52;11.77;;;;;;;14.35;84.78;101702.25;5049780;28;20029;-45
2024/03/22 13:19:26;;;;;;;24.92;11.27;;;;;;;14.54;83.91;101706.88;5049500;28;20029;-44
2024/03/22 13:21:51;;;;;;;23.58;11.05;;;;;;;15.26;81.63;101705.75;5049605;28;20055;-47
2024/03/22 13:24:17;;;;;;;26.70;11.50;;;;;;;14.96;82.98;101702.88;5048958;28;20466;-47
2024/03/22 13:26:42;;;;;;;23.17;10.95;;;;;;;14.74;82.44;101700.94;5049409;28;20033;-46
2024/03/22 13:29:07;;;;;;;25.52;10.50;;;;;;;14.94;82.38;101700.25;5049812;28;20040;-45
2024/03/22 13:31:33;;;;;;;25.65;10.70;;;;;;;15.27;80.08;101696.13;5049487;28;20041;-45
2024/03/22 13:33:58;;;;;;;23.83;10.45;;;;;;;15.12;81.21;101691.66;5049129;28;20056;-45
2024/03/22 13:36:25;;;;;;;28.75;11.30;;;;;;;14.91;81.27;101694.09;5048834;28;20124;-44
2024/03/22 13:38:51;;;;;;;20.95;10.65;;;;;;;14.89;81.80;101691.44;5049183;28;20033;-45
2024/03/22 13:41:16;;;;;;;21.60;10.68;;;;;;;14.98;81.61;101682.78;5049576;28;20101;-44
2024/03/22 13:43:44;;;;;;;26.38;10.98;;;;;;;14.82;81.47;101679.13;5048278;28;20033;-45
2024/03/22 13:46:14;;;;;;;24.88;11.10;;;;;;;15.24;80.67;101676.00;5051290;28;20033;-45
2024/03/22 13:48:40;;;;;;;23.60;11.05;;;;;;;15.72;78.70;101671.94;5052696;28;20098;-46
2024/03/22 13:51:05;;;;;;;21.33;10.50;;;;;;;15.17;79.80;101673.31;5052903;28;20455;-46
2024/03/22 13:53:30;;;;;;;21.55;9.85;;;;;;;14.84;80.66;101672.16;5051735;28;20658;-47
2024/03/22 13:55:56;;;;;;;26.35;9.85;;;;;;;14.95;80.50;101669.63;5053175;28;20056;-51
2024/03/22 13:58:22;;;;;;;22.83;10.40;;;;;;;14.94;79.73;101671.38;5052250;28;20276;-46
2024/03/22 14:00:47;;;;;;;21.05;9.65;;;;;;;15.02;79.88;101661.81;5054364;28;20033;-44
2024/03/22 14:03:13;;;;;;;25.20;9.60;;;;;;;15.16;77.74;101659.28;5054707;28;20033;-44
2024/03/22 14:05:38;;;;;;;22.25;10.48;;;;;;;14.98;79.25;101661.78;5053799;28;20036;-45
2024/03/22 14:08:04;;;;;;;22.98;10.40;;;;;;;15.01;79.65;101649.53;5053064;28;20510;-46
2024/03/22 14:10:33;;;;;;;23.90;10.27;;;;;;;15.23;79.58;101652.34;5053980;28;20119;-44
2024/03/22 14:12:58;;;;;;;25.40;10.02;;;;;;;14.99;79.30;101647.78;5054791;28;20029;-46
2024/03/22 14:15:26;;;;;;;23.23;9.43;;;;;;;14.82;78.92;101652.88;5053289;28;20178;-46
2024/03/22 14:17:51;;;;;;;21.35;9.20;;;;;;;15.13;77.95;101647.88;5052857;28;20037;-44
2024/03/22 14:20:17;;;;;;;21.27;9.80;;;;;;;15.27;78.06;101647.09;5053189;28;20399;-47
2024/03/22 14:22:42;;;;;;;19.35;9.15;;;;;;;15.20;76.72;101645.31;5052795;28;20087;-47
2024/03/22 14:25:08;;;;;;;24.20;9.23;;;;;;;15.01;77.38;101646.91;5052570;28;20056;-45
2024/03/22 14:27:35;;;;;;;24.95;9.40;;;;;;;14.44;79.40;101643.81;5053431;28;20121;-43
2024/03/22 14:30:01;;;;;;;25.50;9.23;;;;;;;14.66;79.17;101650.13;5054585;28;20095;-44
2024/03/22 14:32:26;;;;;;;21.23;9.27;;;;;;;14.54;78.28;101651.78;5051615;28;20037;-45
2024/03/22 14:34:52;;;;;;;24.17;9.45;;;;;;;14.56;77.82;101651.78;5052329;28;20395;-46
2024/03/22 14:37:17;;;;;;;24.52;9.15;;;;;;;14.76;78.25;101644.09;5051742;28;20506;-46
2024/03/22 14:39:43;;;;;;;22.60;9.63;;;;;;;14.87;78.89;101640.69;5052077;28;20048;-45
2024/03/22 14:42:08;;;;;;;25.05;9.38;;;;;;;14.57;78.51;101638.69;5051699;28;20563;-45
2024/03/22 14:44:34;;;;;;;26.10;9.50;;;;;;;14.34;79.64;101645.41;5050948;28;20060;-47
2024/03/22 14:46:59;;;;;;;24.00;8.95;;;;;;;14.18;80.58;101640.88;5051959;28;20060;-48
2024/03/22 14:49:24;;;;;;;24.92;8.70;;;;;;;13.67;81.85;101646.38;5051615;28;20112;-45
2024/03/22 14:51:50;;;;;;;23.48;7.13;;;;;;;13.58;81.65;101652.38;5052084;28;20030;-43
2024/03/22 14:54:16;;;;;;;24.00;7.10;;;;;;;13.75;80.96;101639.50;5051245;28;20119;-44
2024/03/22 14:56:42;;;;;;;26.98;7.07;;;;;;;13.84;80.84;101636.13;5051464;28;20128;-44
2024/03/22 14:59:07;;;;;;;23.50;6.10;;;;;;;13.55;81.21;101639.22;5052012;28;20551;-45
2024/03/22 15:01:32;;;;;;;20.27;6.30;;;;;;;13.93;79.31;101637.09;5051342;28;20056;-47
2024/03/22 15:03:58;;;;;;;21.88;6.20;;;;;;;13.55;82.07;101641.84;5051316;28;20041;-45
2024/03/22 15:06:23;;;;;;;22.98;6.45;;;;;;;13.81;81.77;101629.09;5051211;28;20037;-45
2024/03/22 15:08:48;;;;;;;21.10;6.88;;;;;;;13.95;81.86;101632.75;5052129;28;20036;-44
2024/03/22 15:11:14;;;;;;;21.58;6.88;;;;;;;13.66;82.09;101629.75;5051723;28;20396;-47
2024/03/22 15:13:39;;;;;;;21.95;5.72;;;;;;;13.29;82.43;101619.66;5050813;28;20505;-45
2024/03/22 15:16:05;;;;;;;21.50;5.75;;;;;;;13.34;81.21;101625.84;5051585;28;20035;-44
2024/03/22 15:18:30;;;;;;;21.83;5.47;;;;;;;13.42;80.04;101624.19;5050647;28;20140;-44
2024/03/22 15:20:55;;;;;;;23.25;5.45;;;;;;;13.40;80.47;101618.97;5051144;28;20064;-46
2024/03/22 15:23:21;;;;;;;22.75;5.20;;;;;;;13.69;79.58;101610.59;5050501;28;20119;-46
2024/03/22 15:25:47;;;;;;;20.80;4.88;;;;;;;13.82;79.06;101605.53;5051676;28;20039;-45
2024/03/22 15:28:13;;;;;;;23.95;5.03;;;;;;;13.71;79.87;101598.41;5051798;28;20052;-44
2024/03/22 15:30:39;;;;;;;21.50;4.72;;;;;;;13.57;79.56;101598.22;5050501;28;20407;-47
2024/03/22 15:33:05;;;;;;;19.83;4.18;;;;;;;13.44;78.27;101605.88;5051922;28;20029;-42
2024/03/22 15:35:31;;;;;;;18.30;4.18;;;;;;;13.72;77.27;101590.53;5053367;28;20454;-44
2024/03/22 15:37:57;;;;;;;22.00;4.95;;;;;;;13.75;77.40;101584.47;5053089;28;20025;-45
2024/03/22 15:40:22;;;;;;;21.75;5.18;;;;;;;13.85;77.06;101595.91;5052980;28;20064;-45
2024/03/22 15:42:48;;;;;;;22.75;5.35;;;;;;;13.65;77.06;101590.47;5050897;28;20064;-43
2024/03/22 15:45:13;;;;;;;17.98;5.07;;;;;;;13.92;77.46;101590.75;5051194;28;20388;-45
2024/03/22 15:47:39;;;;;;;23.55;5.28;;;;;;;13.82;78.81;101592.41;5052303;28;20403;-46
2024/03/22 15:50:05;;;;;;;23.85;4.85;;;;;;;13.79;78.08;101589.75;5051364;28;20040;-45
2024/03/22 15:52:31;;;;;;;22.08;4.68;;;;;;;13.62;78.74;101578.19;5053045;28;20045;-44
2024/03/22 15:54:57;;;;;;;19.08;4.57;;;;;;;13.38;79.24;101586.63;5052666;28;20052;-48
2024/03/22 15:57:23;;;;;;;23.30;4.85;;;;;;;13.52;81.43;101583.31;5051499;28;20096;-47
2024/03/22 15:59:48;;;;;;;25.25;5.18;;;;;;;13.45;80.58;101587.59;5050515;28;20116;-46
2024/03/22 16:02:14;;;;;;;18.63;4.60;;;;;;;13.79;80.55;101586.25;5050931;28;20183;-44
2024/03/22 16:04:39;;;;;;;27.50;5.00;;;;;;;13.68;79.11;101580.00;5050264;28;20069;-49
2024/03/22 16:07:05;;;;;;;21.30;4.72;;;;;;;13.95;78.26;101571.59;5051177;28;20021;-45
2024/03/22 16:09:31;;;;;;;19.95;4.43;;;;;;;13.74;78.79;101573.09;5050882;28;20079;-45
2024/03/22 16:11:56;;;;;;;22.10;4.82;;;;;;;14.11;78.17;101570.88;5049147;28;20033;-45
2024/03/22 16:14:21;;;;;;;21.27;4.43;;;;;;;14.26;76.68;101571.03;5050353;28;20033;-43
2024/03/22 16:16:47;;;;;;;21.10;4.97;;;;;;;13.80;76.78;101565.31;5051259;28;20123;-44
2024/03/22 16:19:12;;;;;;;24.10;4.57;;;;;;;13.58;77.98;101562.41;5053189;28;20036;-45
2024/03/22 16:21:38;;;;;;;25.42;5.05;;;;;;;13.79;78.24;101553.06;5051591;28;20041;-47
2024/03/22 16:24:04;;;;;;;23.77;4.28;;;;;;;13.73;78.15;101563.47;5050415;28;20029;-44
2024/03/22 16:26:32;;;;;;;25.35;5.40;;;;;;;13.91;77.65;101562.78;5051152;28;20037;-45
2024/03/22 16:28:58;;;;;;;24.67;4.95;;;;;;;13.91;78.66;101562.78;5050417;28;20064;-45
2024/03/22 16:31:23;;;;;;;26.70;5.20;;;;;;;13.84;77.68;101571.47;5051569;28;20041;-43
2024/03/22 16:33:49;;;;;;;27.30;4.65;;;;;;;13.69;78.79;101579.16;5033460;28;20560;-46
2024/03/22 16:36:14;;;;;;;22.27;4.82;;;;;;;13.74;78.50;101580.94;5052572;28;20123;-46
2024/03/22 16:38:40;;;;;;;30.85;5.65;;;;;;;13.89;78.32;101571.50;5049837;28;20080;-45
2024/03/22 16:41:06;;;;;;;19.42;4.60;;;;;;;14.18;76.86;101570.06;5049914;28;20775;-45
2024/03/22 16:43:33;;;;;;;24.80;4.78;;;;;;;14.06;76.54;101567.31;5049310;28;20041;-45
2024/03/22 16:45:58;;;;;;;19.77;4.53;;;;;;;14.44;75.81;101570.34;5049757;28;20112;-45
2024/03/22 16:48:24;;;;;;;24.83;5.30;;;;;;;14.35;75.25;101570.22;5050515;28;20064;-44
2024/03/22 16:50:49;;;;;;;17.05;4.63;;;;;;;14.19;76.87;101564.84;5049576;28;20064;-46
2024/03/22 16:53:17;;;;;;;21.20;5.45;;;;;;;14.09;77.44;101568.22;5049457;28;20032;-44
2024/03/22 16:55:43;;;;;;;18.77;4.90;;;;;;;14.11;76.16;101566.50;5049217;28;20043;-43
2024/03/22 16:58:08;;;;;;;24.58;4.78;;;;;;;14.16;75.45;101556.94;5050161;28;20120;-44
2024/03/22 17:00:33;;;;;;;22.88;4.70;;;;;;;13.91;76.71;101551.41;5049509;28;20037;-46
2024/03/22 17:02:59;;;;;;;22.55;4.60;;;;;;;13.48;74.89;101563.19;5049596;28;20040;-47
2024/03/22 17:05:25;;;;;;;18.38;4.43;;;;;;;13.74;74.71;101552.13;5049668;28;20033;-44
2024/03/22 17:07:50;;;;;;;18.88;4.35;;;;;;;14.15;73.59;101556.91;5049529;28;20522;-44
2024/03/22 17:10:15;;;;;;;25.00;5.40;;;;;;;13.87;73.34;101545.28;5050224;28;20040;-47
2024/03/22 17:12:41;;;;;;;23.92;4.50;;;;;;;13.93;73.65;101550.59;5048941;28;20029;-45
2024/03/22 17:15:07;;;;;;;23.55;4.10;;;;;;;13.98;73.97;101548.00;5050447;28;20114;-46
2024/03/22 17:17:32;;;;;;;18.42;4.28;;;;;;;13.91;73.98;101538.31;5050658;28;20562;-44
2024/03/22 17:19:57;;;;;;;22.75;4.97;;;;;;;14.08;73.49;101547.25;5050414;28;20075;-45
2024/03/22 17:22:23;;;;;;;18.70;4.47;;;;;;;13.93;74.03;101541.84;5054097;28;20040;-45
2024/03/22 17:24:48;;;;;;;20.83;4.70;;;;;;;14.06;74.17;101536.75;5054430;28;20037;-46
2024/03/22 17:27:14;;;;;;;24.35;4.45;;;;;;;14.17;74.04;101524.59;5055731;28;20047;-43
2024/03/22 17:29:40;;;;;;;22.30;4.68;;;;;;;13.94;74.75;101528.75;5055478;28;20044;-44
2024/03/22 17:32:05;;;;;;;18.90;4.45;;;;;;;13.57;77.44;101527.47;5055475;28;20379;-45
2024/03/22 17:34:33;;;;;;;26.45;4.68;;;;;;;13.40;78.50;101527.28;5053521;28;20045;-43
2024/03/22 17:36:58;;;;;;;21.23;4.63;;;;;;;13.58;77.59;101518.75;5053315;28;20029;-47
2024/03/22 17:39:23;;;;;;;21.25;3.78;;;;;;;13.57;77.83;101517.00;5053690;28;20483;-47
2024/03/22 17:41:48;;;;;;;20.00;4.88;;;;;;;13.80;77.14;101526.00;5053043;28;20527;-45
2024/03/22 17:44:14;;;;;;;26.67;5.03;;;;;;;13.64;78.02;101525.81;5052980;28;20036;-44
2024/03/22 17:46:39;;;;;;;24.70;4.78;;;;;;;13.75;77.89;101522.44;5052988;28;20521;-45
2024/03/22 17:49:04;;;;;;;32.10;5.32;;;;;;;13.50;78.63;101528.25;5053116;28;20037;-47
2024/03/22 17:51:30;;;;;;;29.73;6.22;;;;;;;13.39;79.36;101522.03;5053333;28;20033;-46
2024/03/22 17:53:56;;;;;;;25.35;5.45;;;;;;;13.35;79.31;101518.50;5052604;28;20036;-45
2024/03/22 17:56:22;;;;;;;31.25;5.43;;;;;;;13.55;78.67;101512.59;5054006;28;20746;-45
2024/03/22 17:58:47;;;;;;;30.58;7.53;;;;;;;13.40;79.17;101503.72;5055345;28;20553;-43
2024/03/22 18:01:12;;;;;;;33.08;8.38;;;;;;;13.19;80.01;101526.13;5056034;28;20087;-45
2024/03/22 18:03:38;;;;;;;52.22;15.85;;;;;;;13.07;80.85;101531.16;5053365;28;20406;-44
2024/03/22 18:06:04;;;;;;;51.78;14.25;;;;;;;13.35;79.50;101534.22;5053640;28;20079;-45
2024/03/22 18:08:31;;;;;;;33.75;9.40;;;;;;;13.10;80.46;101521.63;5055637;28;20037;-43
2024/03/22 18:10:57;;;;;;;41.47;11.65;;;;;;;12.92;81.99;101532.72;5054992;28;20057;-44
2024/03/22 18:13:23;;;;;;;54.90;16.48;;;;;;;12.95;82.62;101529.25;5052999;28;20079;-45
2024/03/22 18:15:48;;;;;;;53.50;16.48;;;;;;;12.98;82.01;101518.84;5053486;28;20032;-47
2024/03/22 18:18:13;;;;;;;44.65;12.15;;;;;;;13.32;81.70;101515.84;5053441;28;20040;-46
2024/03/22 18:20:39;;;;;;;27.42;7.82;;;;;;;13.34;81.32;101518.47;5052274;28;20502;-45
2024/03/22 18:23:04;;;;;;;31.48;7.90;;;;;;;13.37;81.57;101515.88;5052012;28;20152;-46
2024/03/22 18:25:29;;;;;;;30.50;6.82;;;;;;;13.35;81.20;101521.13;5051966;28;20082;-46
2024/03/22 18:27:54;;;;;;;40.08;11.23;;;;;;;13.17;81.85;101526.13;5052529;28;20033;-48
2024/03/22 18:30:20;;;;;;;39.40;11.52;;;;;;;13.09;81.43;101526.84;5052971;28;20033;-46
2024/03/22 18:32:45;;;;;;;39.33;11.65;;;;;;;12.99;82.58;101531.09;5064763;22;20408;-40
2024/03/22 18:35:11;;;;;;;33.47;9.23;;;;;;;13.23;81.68;101531.44;5051512;28;20040;-40
2024/03/22 18:37:36;;;;;;;25.70;7.03;;;;;;;12.92;82.00;101527.50;5051313;28;20037;-43
2024/03/22 18:40:02;;;;;;;24.38;5.70;;;;;;;12.73;81.87;101519.34;5051763;28;20041;-41
2024/03/22 18:42:29;;;;;;;35.65;5.40;;;;;;;12.92;81.11;101519.66;5051547;28;20041;-43
2024/03/22 18:44:54;;;;;;;29.05;5.63;;;;;;;13.00;80.87;101514.50;5051366;28;20403;-40
2024/03/22 18:47:19;;;;;;;28.73;5.82;;;;;;;13.14;80.57;101506.88;5051209;28;20033;-42
2024/03/22 18:49:45;;;;;;;34.35;6.40;;;;;;;13.03;80.07;101504.06;5051309;28;20049;-41
2024/03/22 18:52:10;;;;;;;25.90;5.38;;;;;;;13.02;80.77;101507.56;5051329;28;20040;-42
2024/03/22 18:54:35;;;;;;;19.58;4.88;;;;;;;13.33;79.18;101494.03;5050624;28;20544;-46
2024/03/22 18:57:01;;;;;;;27.85;5.80;;;;;;;13.33;79.33;101499.25;5050492;28;20032;-43
2024/03/22 18:59:27;;;;;;;25.67;5.28;;;;;;;13.00;79.45;101498.78;5051348;28;20064;-41
2024/03/22 19:01:53;;;;;;;20.23;4.97;;;;;;;13.26;78.18;101500.03;5050801;28;20045;-41
2024/03/22 19:04:19;;;;;;;27.75;6.00;;;;;;;13.24;77.90;101500.88;5050714;28;20025;-39
2024/03/22 19:06:45;;;;;;;26.40;5.40;;;;;;;13.37;77.11;101493.19;5049289;28;20339;-42
2024/03/22 19:09:11;;;;;;;21.35;4.68;;;;;;;13.41;76.63;101483.66;5051404;28;20557;-42
2024/03/22 19:11:36;;;;;;;23.45;5.07;;;;;;;13.38;76.74;101480.97;5050836;28;20056;-41
2024/03/22 19:14:01;;;;;;;26.92;5.50;;;;;;;13.40;76.97;101474.03;5050456;28;20041;-43
2024/03/22 19:16:27;;;;;;;19.77;5.70;;;;;;;13.47;77.04;101473.25;5051081;28;20518;-40
2024/03/22 19:18:52;;;;;;;22.15;4.68;;;;;;;13.49;77.00;101468.00;5050694;28;20037;-41
2024/03/22 19:21:17;;;;;;;26.33;5.35;;;;;;;13.41;77.11;101467.94;5049796;28;20028;-42
2024/03/22 19:23:43;;;;;;;21.13;5.57;;;;;;;13.47;76.96;101465.38;5050111;28;20087;-41
2024/03/22 19:26:08;;;;;;;22.42;5.30;;;;;;;13.33;77.63;101454.75;5050817;28;20223;-41
2024/03/22 19:28:35;;;;;;;22.70;5.35;;;;;;;13.35;77.83;101452.16;5050670;28;20037;-39
2024/03/22 19:31:02;;;;;;;22.95;4.60;;;;;;;13.39;77.61;101446.06;5051028;28;20063;-42
2024/03/22 19:33:28;;;;;;;28.20;5.28;;;;;;;13.04;78.18;101450.00;5049755;28;20562;-41
2024/03/22 19:35:53;;;;;;;30.33;5.40;;;;;;;12.92;79.35;101456.84;5050532;28;20516;-43
2024/03/22 19:38:18;;;;;;;26.30;6.22;;;;;;;12.80;79.43;101458.41;5050672;28;20035;-42
2024/03/22 19:40:44;;;;;;;24.02;6.28;;;;;;;12.98;78.91;101454.28;5050662;28;20502;-43
2024/03/22 19:43:09;;;;;;;21.95;5.90;;;;;;;13.09;78.67;101449.19;5047856;28;20571;-41
2024/03/22 19:45:34;;;;;;;25.10;6.03;;;;;;;13.15;78.25;101449.28;5049841;28;20063;-41
2024/03/22 19:48:00;;;;;;;21.88;5.85;;;;;;;13.21;77.89;101444.13;5050248;28;20108;-42
2024/03/22 19:50:25;;;;;;;22.27;5.70;;;;;;;13.08;78.36;101446.53;5048539;28;20065;-39
2024/03/22 19:52:51;;;;;;;21.95;5.40;;;;;;;13.17;77.96;101438.84;5049689;28;20128;-43
2024/03/22 19:55:17;;;;;;;22.67;5.40;;;;;;;12.91;77.94;101443.72;5050694;28;20068;-41
2024/03/22 19:57:42;;;;;;;25.92;5.70;;;;;;;13.07;78.08;101434.31;5050374;28;20495;-41